Time;durP1;ratioP1;P1;durP2;ratioP2;P2;SDS_P1;SDS_P2;PMS_P1;PMS_P2;Temp;Humidity;BMP_temperature;BMP_pressure;BME280_temperature;BME280_humidity;BME280_pressure;Samples;Min_cycle;Max_cycle;Signal;HPM_P1;HPM_P2
2022/12/27 00:00:37;;;;;;;6.37;2.47;;;3.10;99.90;;;;;;5051826;28;20459;-51
2022/12/27 00:03:03;;;;;;;6.37;2.20;;;3.20;99.90;;;;;;5051847;28;20452;-51
2022/12/27 00:05:30;;;;;;;8.97;2.40;;;3.10;99.90;;;;;;5051858;28;20448;-51
2022/12/27 00:07:57;;;;;;;7.20;2.30;;;3.10;99.90;;;;;;5051344;28;20484;-51
2022/12/27 00:10:23;;;;;;;6.93;2.20;;;3.10;99.90;;;;;;5052076;28;20448;-52
2022/12/27 00:12:50;;;;;;;11.40;2.83;;;3.10;99.90;;;;;;5051834;28;20854;-55
2022/12/27 00:15:17;;;;;;;6.07;2.23;;;3.10;99.90;;;;;;5051832;28;20479;-54
2022/12/27 00:17:45;;;;;;;11.57;3.97;;;3.10;99.90;;;;;;5051307;28;20448;-56
2022/12/27 00:20:12;;;;;;;6.10;1.83;;;3.10;99.90;;;;;;5051526;28;20518;-57
2022/12/27 00:22:39;;;;;;;6.90;2.20;;;3.10;99.90;;;;;;5051536;28;20452;-49
2022/12/27 00:25:07;;;;;;;8.87;2.30;;;3.10;99.90;;;;;;5051551;28;20531;-53
2022/12/27 00:27:33;;;;;;;6.93;2.57;;;3.10;99.90;;;;;;5059571;28;20479;-49
2022/12/27 00:30:00;;;;;;;6.97;2.30;;;3.20;99.90;;;;;;5051473;28;20876;-50
2022/12/27 00:32:27;;;;;;;4.83;2.30;;;3.10;99.90;;;;;;5051779;28;20455;-54
2022/12/27 00:34:55;;;;;;;6.03;2.50;;;3.20;99.90;;;;;;5051868;28;21038;-55
2022/12/27 00:37:21;;;;;;;11.33;2.37;;;3.10;99.90;;;;;;5051712;28;20489;-51
2022/12/27 00:39:48;;;;;;;9.13;2.30;;;3.10;99.90;;;;;;5051408;28;20890;-51
2022/12/27 00:42:15;;;;;;;5.40;2.20;;;3.10;99.90;;;;;;5051793;28;20448;-50
2022/12/27 00:44:42;;;;;;;9.63;2.33;;;3.10;99.90;;;;;;5051589;28;20448;-48
2022/12/27 00:47:09;;;;;;;9.17;2.53;;;3.10;99.90;;;;;;5051263;28;20951;-51
2022/12/27 00:49:36;;;;;;;5.90;2.67;;;3.10;99.90;;;;;;5051557;28;20518;-52
2022/12/27 00:52:04;;;;;;;10.10;2.93;;;3.20;99.90;;;;;;5051496;28;20485;-51
2022/12/27 00:54:31;;;;;;;6.17;2.63;;;3.20;99.90;;;;;;5051491;28;20494;-50
2022/12/27 00:56:57;;;;;;;6.17;2.40;;;3.10;99.90;;;;;;5059611;28;20861;-49
2022/12/27 00:59:24;;;;;;;4.27;2.07;;;3.10;99.90;;;;;;5051769;28;20871;-55
2022/12/27 01:01:51;;;;;;;4.93;2.10;;;3.20;99.90;;;;;;5055233;28;20853;-51
2022/12/27 01:04:17;;;;;;;6.80;2.43;;;3.20;99.90;;;;;;5055598;28;20452;-51
2022/12/27 01:06:44;;;;;;;7.60;2.77;;;3.30;99.90;;;;;;5055007;28;20451;-50
2022/12/27 01:09:12;;;;;;;9.97;2.93;;;3.30;99.90;;;;;;5055267;28;20533;-53
2022/12/27 01:11:40;;;;;;;8.20;3.10;;;3.30;99.90;;;;;;5055203;28;20456;-54
2022/12/27 01:14:07;;;;;;;10.03;2.87;;;3.30;99.90;;;;;;5055202;28;20979;-53
2022/12/27 01:16:34;;;;;;;8.13;2.23;;;3.30;99.90;;;;;;5054957;28;20876;-54
2022/12/27 01:19:01;;;;;;;6.00;2.87;;;3.30;99.90;;;;;;5055014;28;20467;-50
2022/12/27 01:21:29;;;;;;;10.93;2.67;;;3.30;99.90;;;;;;5054790;28;20938;-50
2022/12/27 01:23:56;;;;;;;11.00;3.17;;;3.30;99.90;;;;;;5055139;28;20452;-51
2022/12/27 01:26:24;;;;;;;4.03;2.70;;;3.30;99.90;;;;;;5059559;28;21023;-50
2022/12/27 01:28:52;;;;;;;8.07;2.30;;;3.30;99.90;;;;;;5066268;28;20509;-55
2022/12/27 01:31:21;;;;;;;6.37;2.57;;;3.30;99.90;;;;;;5074668;28;20447;-52
2022/12/27 01:33:48;;;;;;;10.10;2.50;;;3.30;99.90;;;;;;5074981;28;20451;-51
2022/12/27 01:36:18;;;;;;;8.33;2.90;;;3.30;99.90;;;;;;5075122;28;20459;-50
2022/12/27 01:38:46;;;;;;;6.07;2.83;;;3.30;99.90;;;;;;5076159;28;20866;-53
2022/12/27 01:44:01;;;;;;;6.03;2.37;;;3.40;99.90;;;;;;5074948;28;20500;-51
2022/12/27 01:46:30;;;;;;;6.20;3.00;;;3.40;99.90;;;;;;5074847;28;20481;-49
2022/12/27 01:48:57;;;;;;;4.80;2.43;;;3.50;99.90;;;;;;5074442;28;20518;-48
2022/12/27 01:51:24;;;;;;;7.20;2.80;;;3.40;99.90;;;;;;5074472;28;20455;-51
2022/12/27 01:53:52;;;;;;;8.33;2.73;;;3.40;99.90;;;;;;5074449;28;20444;-51
2022/12/27 01:56:24;;;;;;;7.23;2.37;;;3.40;99.90;;;;;;5070423;28;20444;-48
2022/12/27 01:58:56;;;;;;;7.90;2.17;;;3.40;99.90;;;;;;5054646;28;20468;-53
2022/12/27 02:01:28;;;;;;;7.37;3.00;;;3.50;99.90;;;;;;5054404;28;20501;-53
2022/12/27 02:03:59;;;;;;;9.33;3.27;;;3.50;99.90;;;;;;5054255;28;20475;-51
2022/12/27 02:06:27;;;;;;;6.60;2.20;;;3.50;99.90;;;;;;5053960;28;20444;-52
2022/12/27 02:08:59;;;;;;;8.33;2.67;;;3.50;99.90;;;;;;5054304;28;20558;-49
2022/12/27 02:14:27;;;;;;;8.23;2.37;;;3.50;99.90;;;;;;5006514;28;20530;-55
2022/12/27 02:16:56;;;;;;;7.27;2.27;;;3.50;99.90;;;;;;5054018;28;20452;-50
2022/12/27 02:19:33;;;;;;;8.50;2.40;;;3.50;99.90;;;;;;5053887;28;20464;-48
2022/12/27 02:22:17;;;;;;;8.73;2.43;;;3.40;99.90;;;;;;5054090;28;20444;-49
2022/12/27 02:24:56;;;;;;;7.27;3.07;;;3.50;99.90;;;;;;5054013;28;20447;-52
2022/12/27 02:27:42;;;;;;;9.30;2.67;;;3.50;99.90;;;;;;5061729;28;20436;-51
2022/12/27 02:30:17;;;;;;;4.60;2.27;;;3.50;99.90;;;;;;5053607;28;20457;-52
2022/12/27 02:32:49;;;;;;;8.77;2.50;;;3.50;99.90;;;;;;5053873;28;20501;-50
2022/12/27 02:35:22;;;;;;;11.13;2.73;;;3.50;99.90;;;;;;5053441;28;20490;-47
2022/12/27 02:37:56;;;;;;;6.50;2.50;;;3.50;99.90;;;;;;5053365;28;20441;-51
2022/12/27 02:55:04;;;;;;;6.17;2.37;;;3.40;99.90;;;;;;5053429;28;20431;-54
2022/12/27 02:57:41;;;;;;;7.00;2.60;;;3.40;99.90;;;;;;5052935;28;20448;-54
2022/12/27 03:03:28;;;;;;;10.30;2.67;;;3.40;99.90;;;;;;5073199;28;20489;-57
2022/12/27 03:06:39;;;;;;;6.60;2.50;;;3.40;99.90;;;;;;5071290;28;20463;-49
2022/12/27 03:17:49;;;;;;;5.03;2.13;;;3.40;99.90;;;;;;5072834;28;20999;-50
2022/12/27 03:25:50;;;;;;;7.93;2.50;;;3.40;99.90;;;;;;5072431;28;20425;-53
2022/12/27 03:34:30;;;;;;;6.80;2.50;;;3.50;99.90;;;;;;5052630;28;20469;-55
2022/12/27 03:39:44;;;;;;;9.43;2.90;;;3.40;99.90;;;;;;5052551;28;20467;-49
2022/12/27 03:45:01;;;;;;;7.80;2.67;;;3.50;99.90;;;;;;5052493;28;20423;-49
2022/12/27 03:47:32;;;;;;;4.40;2.00;;;3.50;99.90;;;;;;5052026;28;20942;-49
2022/12/27 03:50:06;;;;;;;6.60;2.50;;;3.50;99.90;;;;;;5052082;28;20499;-49
2022/12/27 03:52:40;;;;;;;8.77;2.50;;;3.50;99.90;;;;;;5052053;28;20506;-55
2022/12/27 03:55:08;;;;;;;10.80;2.77;;;3.50;99.90;;;;;;5052482;28;20452;-52
2022/12/27 03:57:35;;;;;;;9.40;2.80;;;3.50;99.90;;;;;;5059956;28;21000;-51
2022/12/27 04:00:03;;;;;;;7.43;3.00;;;3.50;99.90;;;;;;5051951;28;20460;-49
2022/12/27 04:02:30;;;;;;;6.03;2.83;;;3.60;99.90;;;;;;5051946;28;20459;-47
2022/12/27 04:04:56;;;;;;;5.33;2.47;;;3.60;99.90;;;;;;5052003;28;20452;-48
2022/12/27 04:07:23;;;;;;;6.93;2.50;;;3.60;99.90;;;;;;5051699;28;20498;-51
2022/12/27 04:34:42;;;;;;;11.43;3.10;;;3.60;99.90;;;;;;5051327;28;20427;-53
2022/12/27 04:37:11;;;;;;;5.67;2.30;;;3.70;99.90;;;;;;5051652;28;20482;-47
2022/12/27 04:39:38;;;;;;;10.03;2.70;;;3.70;99.90;;;;;;5051411;28;20475;-51
2022/12/27 04:55:56;;;;;;;6.83;2.30;;;3.70;99.90;;;;;;5052742;28;20451;-52
2022/12/27 04:58:25;;;;;;;5.63;2.17;;;3.70;99.90;;;;;;5063158;28;20504;-53
2022/12/27 05:03:37;;;;;;;6.10;2.23;;;3.70;99.90;;;;;;5071557;28;20505;-50
2022/12/27 05:06:04;;;;;;;6.50;2.13;;;3.70;99.90;;;;;;5071146;28;20504;-51
2022/12/27 05:14:03;;;;;;;5.00;2.17;;;3.70;99.90;;;;;;5071404;28;20419;-56
2022/12/27 05:16:31;;;;;;;7.40;2.73;;;3.70;99.90;;;;;;5071446;28;20842;-50
2022/12/27 05:18:58;;;;;;;8.37;2.00;;;3.80;99.90;;;;;;5071446;28;20471;-52
2022/12/27 05:21:25;;;;;;;7.43;2.67;;;3.80;99.90;;;;;;5071456;28;20443;-52
2022/12/27 05:26:38;;;;;;;6.40;2.37;;;3.90;99.90;;;;;;5064273;28;20511;-47
2022/12/27 05:29:07;;;;;;;4.90;2.47;;;3.90;99.90;;;;;;5051146;28;20579;-49
2022/12/27 05:31:34;;;;;;;8.20;2.83;;;4.00;99.90;;;;;;5051642;28;20848;-52
2022/12/27 05:34:01;;;;;;;9.43;2.67;;;4.00;99.90;;;;;;5051257;28;20451;-54
2022/12/27 05:36:27;;;;;;;6.73;2.53;;;4.00;99.90;;;;;;5050608;28;20926;-57
2022/12/27 05:38:54;;;;;;;6.83;2.93;;;4.10;99.90;;;;;;5049305;28;20870;-47
2022/12/27 05:41:21;;;;;;;12.40;3.27;;;4.10;99.90;;;;;;5044166;28;20452;-47
2022/12/27 05:43:48;;;;;;;7.80;2.83;;;4.10;99.90;;;;;;5050977;28;20463;-47
2022/12/27 05:46:18;;;;;;;5.30;2.27;;;4.10;99.90;;;;;;5050786;28;20445;-50
2022/12/27 05:48:45;;;;;;;12.13;3.33;;;4.10;99.90;;;;;;5054545;28;20490;-47
2022/12/27 05:51:14;;;;;;;3.83;2.37;;;4.20;99.90;;;;;;5054369;28;20505;-53
2022/12/27 05:53:41;;;;;;;6.77;3.00;;;4.20;99.90;;;;;;5054932;28;20214;-47
2022/12/27 05:56:08;;;;;;;9.40;3.80;;;4.30;99.90;;;;;;5057166;28;20619;-52
2022/12/27 05:58:35;;;;;;;7.90;3.33;;;4.30;99.90;;;;;;5065994;28;20278;-49
2022/12/27 06:01:07;;;;;;;12.10;3.20;;;4.40;99.90;;;;;;5074267;28;20868;-57
2022/12/27 06:03:35;;;;;;;6.77;3.20;;;4.40;99.90;;;;;;5074515;28;20667;-50
2022/12/27 06:06:02;;;;;;;9.23;3.83;;;4.40;99.90;;;;;;5073857;28;20204;-51
2022/12/27 06:08:29;;;;;;;6.47;3.03;;;4.40;99.90;;;;;;5074172;28;20228;-50
2022/12/27 06:11:03;;;;;;;8.33;3.47;;;4.40;99.90;;;;;;5074178;28;20201;-53
2022/12/27 06:13:30;;;;;;;8.20;3.60;;;4.50;99.90;;;;;;5074062;28;20231;-50
2022/12/27 06:15:59;;;;;;;8.73;3.73;;;4.40;99.90;;;;;;5073915;28;20630;-52
2022/12/27 06:18:26;;;;;;;8.13;3.50;;;4.40;99.90;;;;;;5073798;28;20316;-50
2022/12/27 06:20:54;;;;;;;11.63;3.63;;;4.40;99.90;;;;;;5074166;28;20206;-51
2022/12/27 06:23:21;;;;;;;6.50;2.37;;;4.40;99.90;;;;;;5073943;28;20505;-48
2022/12/27 06:25:48;;;;;;;6.47;3.60;;;4.40;99.90;;;;;;5073661;28;20447;-47
2022/12/27 06:28:14;;;;;;;8.13;3.13;;;4.40;99.90;;;;;;5053368;28;20213;-50
2022/12/27 06:30:41;;;;;;;6.10;3.50;;;4.40;99.90;;;;;;5053709;28;20494;-48
2022/12/27 06:33:08;;;;;;;8.17;3.33;;;4.30;99.90;;;;;;5053709;28;20214;-49
2022/12/27 06:35:35;;;;;;;13.30;2.67;;;4.30;99.90;;;;;;5053561;28;20522;-50
2022/12/27 06:38:03;;;;;;;6.90;3.50;;;4.30;99.90;;;;;;5053062;28;20236;-47
2022/12/27 06:40:29;;;;;;;8.57;3.40;;;4.30;99.90;;;;;;5053808;28;20328;-48
2022/12/27 06:42:56;;;;;;;11.23;4.13;;;4.30;99.90;;;;;;5053592;28;20217;-51
2022/12/27 06:45:23;;;;;;;10.17;3.80;;;4.30;99.90;;;;;;5053219;28;20449;-56
2022/12/27 06:47:49;;;;;;;9.17;3.40;;;4.30;99.90;;;;;;5053411;28;20445;-48
2022/12/27 06:50:16;;;;;;;7.87;4.17;;;4.30;99.90;;;;;;5053186;28;20982;-49
2022/12/27 06:52:43;;;;;;;8.47;4.20;;;4.30;99.90;;;;;;5053450;28;20853;-56
2022/12/27 06:55:11;;;;;;;11.87;4.33;;;4.20;99.90;;;;;;5053151;28;20920;-53
2022/12/27 06:57:37;;;;;;;12.47;4.60;;;4.20;99.90;;;;;;5052595;28;20947;-53
2022/12/27 07:00:05;;;;;;;8.13;4.50;;;4.20;99.90;;;;;;5071818;28;20992;-49
2022/12/27 07:02:32;;;;;;;12.60;4.80;;;4.20;99.90;;;;;;5073301;28;20729;-50
2022/12/27 07:04:59;;;;;;;8.20;4.33;;;4.20;99.90;;;;;;5072969;28;20833;-53
2022/12/27 07:07:25;;;;;;;11.87;4.00;;;4.20;99.90;;;;;;5072896;28;20448;-53
2022/12/27 07:09:52;;;;;;;11.87;3.97;;;4.20;99.90;;;;;;5072825;28;20479;-50
2022/12/27 07:12:20;;;;;;;10.23;4.03;;;4.20;99.90;;;;;;5073064;28;20209;-51
2022/12/27 07:14:47;;;;;;;8.77;4.20;;;4.20;99.90;;;;;;5072566;28;20447;-53
2022/12/27 07:17:13;;;;;;;10.30;4.40;;;4.10;99.90;;;;;;5073262;28;20447;-53
2022/12/27 07:19:40;;;;;;;7.10;4.10;;;4.20;99.90;;;;;;5072766;28;20221;-48
2022/12/27 07:22:07;;;;;;;10.90;3.57;;;4.10;99.90;;;;;;5072652;28;21006;-54
2022/12/27 07:24:33;;;;;;;12.17;3.63;;;4.20;99.90;;;;;;5072495;28;20667;-56
2022/12/27 07:27:01;;;;;;;6.33;3.30;;;4.10;99.90;;;;;;5064160;28;20796;-52
2022/12/27 07:29:29;;;;;;;8.57;3.00;;;4.00;99.90;;;;;;5058676;28;20586;-56
2022/12/27 07:31:56;;;;;;;7.47;3.40;;;4.00;99.90;;;;;;5052808;28;20260;-56
2022/12/27 07:34:24;;;;;;;5.90;2.97;;;4.00;99.90;;;;;;5052774;28;20452;-51
2022/12/27 07:36:51;;;;;;;14.43;3.43;;;4.00;99.90;;;;;;5052275;28;20456;-48
2022/12/27 07:39:18;;;;;;;8.67;3.27;;;3.90;99.90;;;;;;5052138;28;20534;-55
2022/12/27 07:41:44;;;;;;;10.30;2.60;;;3.90;99.90;;;;;;5052260;28;20205;-51
2022/12/27 07:44:11;;;;;;;8.10;3.20;;;3.90;99.90;;;;;;5052645;28;20504;-51
2022/12/27 07:46:39;;;;;;;7.07;2.60;;;3.80;99.90;;;;;;5052284;28;20456;-50
2022/12/27 07:49:07;;;;;;;10.00;3.40;;;3.80;99.90;;;;;;5052322;28;20943;-56
2022/12/27 07:51:33;;;;;;;9.77;3.23;;;3.80;99.90;;;;;;5052179;28;20966;-52
2022/12/27 07:54:00;;;;;;;12.93;3.30;;;3.80;99.90;;;;;;5052212;28;21105;-52
2022/12/27 07:56:28;;;;;;;11.03;3.07;;;3.80;99.90;;;;;;5051684;28;20456;-55
2022/12/27 07:58:56;;;;;;;7.17;2.73;;;3.80;99.90;;;;;;5060553;28;20542;-53
2022/12/27 08:01:24;;;;;;;11.87;2.57;;;3.80;99.90;;;;;;5052086;28;20448;-52
2022/12/27 08:03:52;;;;;;;7.60;3.30;;;3.80;99.90;;;;;;5052161;28;20582;-51
2022/12/27 08:06:22;;;;;;;5.43;2.73;;;3.80;99.90;;;;;;5051901;28;20474;-50
2022/12/27 08:08:50;;;;;;;8.33;2.00;;;3.90;99.90;;;;;;5051279;28;20526;-55
2022/12/27 08:11:16;;;;;;;13.20;3.00;;;3.90;99.90;;;;;;5051981;28;20448;-55
2022/12/27 08:13:43;;;;;;;10.13;3.10;;;3.90;99.90;;;;;;5051782;28;20943;-51
2022/12/27 08:16:16;;;;;;;8.30;2.67;;;3.90;99.90;;;;;;5051662;28;20831;-54
2022/12/27 08:18:43;;;;;;;11.30;3.93;;;3.90;99.90;;;;;;5051672;28;20502;-56
2022/12/27 08:21:11;;;;;;;9.60;2.83;;;3.80;99.90;;;;;;5051593;28;20939;-56
2022/12/27 08:23:37;;;;;;;7.97;2.93;;;3.80;99.90;;;;;;5051955;28;20501;-53
2022/12/27 08:26:05;;;;;;;9.30;2.80;;;3.80;99.90;;;;;;5051718;28;20493;-51
2022/12/27 08:28:31;;;;;;;13.47;2.83;;;3.90;99.90;;;;;;5060002;28;20468;-54
2022/12/27 08:30:59;;;;;;;12.27;2.77;;;3.90;99.90;;;;;;5051795;28;20499;-51
2022/12/27 08:33:26;;;;;;;10.03;2.97;;;3.90;99.90;;;;;;5051680;28;20452;-52
2022/12/27 08:35:55;;;;;;;7.03;2.40;;;3.90;99.90;;;;;;5051344;28;20952;-57
2022/12/27 08:38:24;;;;;;;14.83;2.90;;;4.00;99.90;;;;;;5051638;28;20233;-53
2022/12/27 08:40:50;;;;;;;8.50;2.50;;;4.00;99.90;;;;;;5051693;28;20455;-53
2022/12/27 08:43:17;;;;;;;6.60;2.20;;;4.10;99.90;;;;;;5051820;28;20444;-53
2022/12/27 08:45:44;;;;;;;10.23;3.13;;;4.10;99.90;;;;;;5051507;28;20498;-53
2022/12/27 08:48:10;;;;;;;7.60;2.70;;;4.10;99.90;;;;;;5051378;28;20526;-51
2022/12/27 08:50:37;;;;;;;10.43;2.53;;;4.10;99.90;;;;;;5051216;28;20993;-52
2022/12/27 08:53:05;;;;;;;16.43;3.30;;;4.20;99.90;;;;;;5051708;28;20259;-55
2022/12/27 08:55:34;;;;;;;7.53;2.67;;;4.20;99.90;;;;;;5051539;28;20527;-55
2022/12/27 08:58:02;;;;;;;9.67;3.00;;;4.20;99.90;;;;;;5061191;28;20467;-56
2022/12/27 09:00:30;;;;;;;6.77;2.47;;;4.20;99.90;;;;;;5071338;28;20448;-53
2022/12/27 09:02:57;;;;;;;5.70;2.53;;;4.20;99.90;;;;;;5071295;28;20850;-48
2022/12/27 09:05:25;;;;;;;8.80;2.27;;;4.30;99.90;;;;;;5053069;28;20205;-57
2022/12/27 09:07:52;;;;;;;9.13;3.07;;;4.30;99.90;;;;;;5053590;28;20457;-54
2022/12/27 09:10:19;;;;;;;7.37;2.40;;;4.40;99.90;;;;;;5052557;28;20482;-58
2022/12/27 09:12:47;;;;;;;6.63;2.73;;;4.40;99.90;;;;;;5056977;28;20449;-50
2022/12/27 09:15:14;;;;;;;9.47;3.10;;;4.40;99.90;;;;;;5042545;28;20861;-49
2022/12/27 09:17:41;;;;;;;9.37;2.80;;;4.50;99.90;;;;;;5050178;28;20935;-48
2022/12/27 09:20:11;;;;;;;8.60;2.60;;;4.50;99.90;;;;;;5050891;28;20673;-48
2022/12/27 09:22:38;;;;;;;8.87;3.27;;;4.50;99.90;;;;;;5054921;28;20209;-52
2022/12/27 09:25:05;;;;;;;12.53;2.47;;;4.60;99.90;;;;;;5054709;28;20703;-57
2022/12/27 09:27:33;;;;;;;8.13;2.53;;;4.70;99.90;;;;;;5062703;28;20482;-49
2022/12/27 09:30:01;;;;;;;7.87;2.70;;;4.70;99.90;;;;;;5054339;28;20221;-53
2022/12/27 09:32:28;;;;;;;12.47;2.77;;;4.70;99.90;;;;;;5055104;28;20262;-54
2022/12/27 09:34:55;;;;;;;9.53;2.43;;;4.70;99.90;;;;;;5065420;28;20201;-54
2022/12/27 09:37:21;;;;;;;9.13;2.17;;;4.70;99.90;;;;;;5054443;28;20893;-58
2022/12/27 09:39:48;;;;;;;6.87;2.00;;;4.70;99.90;;;;;;5061131;28;20236;-61
2022/12/27 09:42:27;;;;;;;9.57;2.47;;;4.90;99.90;;;;;;5054564;28;20207;-60
2022/12/27 09:44:59;;;;;;;7.10;2.40;;;4.90;99.90;;;;;;5053657;28;20217;-61
2022/12/27 09:47:33;;;;;;;8.27;2.33;;;5.00;99.90;;;;;;5054282;28;20233;-57
2022/12/27 09:50:04;;;;;;;10.90;2.43;;;5.00;99.90;;;;;;5055570;28;20612;-62
2022/12/27 09:52:36;;;;;;;4.97;2.57;;;5.10;99.90;;;;;;5065911;28;20202;-62
2022/12/27 09:55:07;;;;;;;7.80;2.50;;;5.20;99.90;;;;;;5073748;28;20738;-63
2022/12/27 09:57:37;;;;;;;8.53;2.60;;;5.40;99.90;;;;;;5065420;28;20207;-62
2022/12/27 10:00:07;;;;;;;6.67;2.70;;;5.40;99.90;;;;;;5055053;28;20701;-59
2022/12/27 10:02:35;;;;;;;4.53;2.77;;;5.40;99.90;;;;;;5053964;28;20219;-57
2022/12/27 10:05:03;;;;;;;8.83;2.10;;;5.50;99.90;;;;;;5054304;28;20346;-57
2022/12/27 10:07:41;;;;;;;8.93;2.70;;;5.40;99.90;;;;;;5053907;28;20203;-56
2022/12/27 10:10:18;;;;;;;6.40;3.30;;;5.40;99.90;;;;;;5065625;28;20258;-56
2022/12/27 10:13:05;;;;;;;9.13;3.17;;;5.40;99.90;;;;;;5075884;28;20302;-55
2022/12/27 10:15:46;;;;;;;11.03;2.93;;;5.40;99.90;;;;;;5074172;28;20214;-51
2022/12/27 10:18:23;;;;;;;5.63;3.13;;;5.30;99.90;;;;;;5074657;28;20238;-56
2022/12/27 10:21:01;;;;;;;7.90;2.30;;;5.40;99.90;;;;;;5075261;28;20209;-59
2022/12/27 10:23:31;;;;;;;8.73;2.67;;;5.40;99.90;;;;;;5061124;28;20215;-57
2022/12/27 10:26:01;;;;;;;7.70;2.50;;;5.40;99.90;;;;;;5054288;28;20222;-58
2022/12/27 10:28:36;;;;;;;4.50;2.47;;;5.40;99.90;;;;;;5062987;28;20217;-56
2022/12/27 10:31:04;;;;;;;5.33;2.20;;;5.40;99.90;;;;;;5055304;28;20314;-57
2022/12/27 10:33:35;;;;;;;6.47;2.80;;;5.40;99.90;;;;;;5055112;28;20333;-59
2022/12/27 10:36:09;;;;;;;5.73;2.63;;;5.50;99.90;;;;;;5056009;28;20209;-53
2022/12/27 10:38:36;;;;;;;5.77;2.17;;;5.70;99.90;;;;;;5054947;28;20405;-56
2022/12/27 10:41:20;;;;;;;6.10;2.27;;;5.70;99.90;;;;;;5055063;28;20239;-57
2022/12/27 10:43:51;;;;;;;7.03;2.97;;;5.80;99.90;;;;;;5053773;28;20209;-54
2022/12/27 10:46:21;;;;;;;9.43;2.60;;;5.80;99.90;;;;;;5053230;28;20212;-53
2022/12/27 10:48:58;;;;;;;7.83;2.40;;;5.90;99.90;;;;;;5053366;28;20229;-54
2022/12/27 10:51:27;;;;;;;10.77;2.80;;;5.90;99.90;;;;;;5054110;28;20299;-51
2022/12/27 10:54:02;;;;;;;6.73;2.40;;;5.90;99.90;;;;;;5050494;28;20231;-52
2022/12/27 10:56:30;;;;;;;7.33;2.73;;;6.00;99.90;;;;;;5058140;28;20208;-60
2022/12/27 10:59:12;;;;;;;9.70;2.53;;;6.00;99.90;;;;;;5052299;28;20232;-53
2022/12/27 11:01:39;;;;;;;9.47;2.63;;;6.00;99.90;;;;;;5056713;28;20197;-55
2022/12/27 11:04:17;;;;;;;9.50;2.97;;;6.10;99.90;;;;;;5059511;28;20218;-54
2022/12/27 11:06:45;;;;;;;6.80;2.13;;;6.20;99.90;;;;;;5056015;28;20206;-54
2022/12/27 11:09:28;;;;;;;5.67;2.13;;;6.30;99.90;;;;;;5052713;28;20231;-55
2022/12/27 11:12:15;;;;;;;7.27;2.43;;;6.30;99.90;;;;;;5053110;28;20283;-54
2022/12/27 11:14:54;;;;;;;7.33;1.83;;;6.40;99.90;;;;;;5052270;28;20645;-53
2022/12/27 11:17:25;;;;;;;4.97;2.00;;;6.40;99.90;;;;;;5052495;28;20209;-59
2022/12/27 11:19:54;;;;;;;5.50;2.03;;;6.40;99.90;;;;;;5052147;28;20233;-57
2022/12/27 11:22:20;;;;;;;4.97;1.97;;;6.30;99.90;;;;;;5052636;28;20228;-55
2022/12/27 11:24:50;;;;;;;7.47;2.00;;;6.30;99.90;;;;;;5051907;28;20223;-53
2022/12/27 11:27:23;;;;;;;7.53;2.10;;;6.30;99.90;;;;;;5060245;28;20201;-62
2022/12/27 11:29:50;;;;;;;11.83;1.93;;;6.30;99.90;;;;;;5052214;28;20221;-61
2022/12/27 11:32:18;;;;;;;3.33;1.60;;;6.30;99.90;;;;;;5052176;28;20292;-57
2022/12/27 11:34:47;;;;;;;12.33;2.20;;;6.30;99.90;;;;;;5051742;28;20212;-56
2022/12/27 11:37:18;;;;;;;6.43;2.20;;;6.30;99.90;;;;;;5051563;28;20305;-56
2022/12/27 11:39:48;;;;;;;8.73;2.10;;;6.40;99.90;;;;;;5051863;28;20234;-60
2022/12/27 11:42:22;;;;;;;8.50;2.70;;;6.40;99.90;;;;;;5043611;28;20626;-56
2022/12/27 11:44:59;;;;;;;3.60;1.57;;;6.50;99.90;;;;;;5057526;28;20201;-59
2022/12/27 11:47:31;;;;;;;7.50;1.50;;;6.60;99.90;;;;;;5051572;28;20251;-59
2022/12/27 11:50:14;;;;;;;7.03;2.57;;;6.60;99.90;;;;;;5051934;28;20230;-56
2022/12/27 11:52:59;;;;;;;7.07;2.33;;;6.70;99.90;;;;;;5051706;28;20201;-57
2022/12/27 11:55:54;;;;;;;12.83;2.60;;;6.70;99.90;;;;;;5051748;28;20260;-57
2022/12/27 11:58:40;;;;;;;9.17;2.53;;;6.70;99.90;;;;;;5052383;28;20224;-58
2022/12/27 12:01:33;;;;;;;4.40;2.13;;;6.60;99.90;;;;;;5051633;28;20213;-53
2022/12/27 12:04:18;;;;;;;4.53;2.13;;;6.70;99.90;;;;;;5051422;28;20612;-55
2022/12/27 12:06:54;;;;;;;10.13;2.20;;;6.80;99.90;;;;;;5051299;28;20560;-56
2022/12/27 12:09:35;;;;;;;8.17;1.60;;;6.90;99.90;;;;;;5051284;28;20704;-54
2022/12/27 12:12:29;;;;;;;6.17;2.03;;;6.80;99.90;;;;;;5051916;28;20222;-53
2022/12/27 12:15:16;;;;;;;22.50;4.80;;;6.80;99.90;;;;;;5051529;28;20206;-61
2022/12/27 12:17:59;;;;;;;146.27;42.13;;;6.80;99.90;;;;;;5051147;28;20205;-59
2022/12/27 12:20:46;;;;;;;11.67;5.40;;;6.90;99.90;;;;;;5050836;28;20213;-61
2022/12/27 12:23:18;;;;;;;10.67;3.33;;;7.00;99.90;;;;;;5051507;28;20210;-56
2022/12/27 12:26:13;;;;;;;8.73;3.67;;;7.00;99.90;;;;;;5051601;28;20656;-59
2022/12/27 12:29:18;;;;;;;14.47;3.97;;;6.90;99.90;;;;;;5054953;28;20599;-59
2022/12/27 12:32:16;;;;;;;5.63;2.77;;;6.90;99.90;;;;;;5045946;28;20276;-61
2022/12/27 12:35:13;;;;;;;9.03;3.10;;;6.80;99.90;;;;;;5051389;28;20583;-62
2022/12/27 12:38:07;;;;;;;8.70;3.30;;;6.90;99.90;;;;;;5025119;28;20598;-62
2022/12/27 12:41:00;;;;;;;17.87;5.43;;;6.90;99.90;;;;;;5049936;28;20240;-63
2022/12/27 12:43:58;;;;;;;8.27;2.30;;;6.80;99.90;;;;;;5053029;28;20202;-62
2022/12/27 12:46:31;;;;;;;8.63;2.80;;;6.70;99.90;;;;;;5049879;28;20266;-63
2022/12/27 12:49:25;;;;;;;8.20;2.43;;;6.60;99.90;;;;;;5062488;28;20677;-63
2022/12/27 12:52:07;;;;;;;6.93;2.50;;;6.50;99.90;;;;;;5071037;28;20439;-63
2022/12/27 12:55:10;;;;;;;3.23;1.97;;;6.50;99.90;;;;;;5070827;28;20213;-63
2022/12/27 12:57:47;;;;;;;4.47;1.90;;;6.50;99.90;;;;;;5066973;28;20693;-64
2022/12/27 13:00:26;;;;;;;6.73;1.90;;;6.50;99.90;;;;;;5034796;28;20201;-65
2022/12/27 13:03:14;;;;;;;6.07;2.23;;;6.50;99.90;;;;;;5035077;28;20202;-64
2022/12/27 13:05:47;;;;;;;5.30;1.97;;;6.60;99.90;;;;;;5034808;28;20213;-64
2022/12/27 13:08:21;;;;;;;6.87;2.00;;;6.50;99.90;;;;;;5034904;28;20234;-63
2022/12/27 13:11:13;;;;;;;4.63;2.17;;;6.50;99.90;;;;;;5034703;28;20229;-63
2022/12/27 13:13:54;;;;;;;4.63;1.77;;;6.50;99.90;;;;;;5034832;28;20293;-63
2022/12/27 13:16:30;;;;;;;9.20;2.13;;;6.50;99.90;;;;;;5057746;28;20726;-63
2022/12/27 13:19:11;;;;;;;5.93;1.57;;;6.40;99.90;;;;;;5062306;28;20231;-65
2022/12/27 13:21:54;;;;;;;8.07;2.00;;;6.40;99.90;;;;;;5054657;28;20201;-52
2022/12/27 13:24:31;;;;;;;5.37;2.00;;;6.40;99.90;;;;;;5054342;28;20243;-49
2022/12/27 13:27:04;;;;;;;6.13;1.90;;;6.30;99.90;;;;;;5055731;28;20209;-51
2022/12/27 13:29:46;;;;;;;6.23;2.30;;;6.30;99.90;;;;;;5060006;28;20244;-53
2022/12/27 13:32:23;;;;;;;5.90;2.80;;;6.30;99.90;;;;;;5054210;28;20236;-50
2022/12/27 13:35:04;;;;;;;12.63;2.27;;;6.20;99.90;;;;;;5054264;28;20207;-50
2022/12/27 13:37:40;;;;;;;4.27;1.90;;;6.20;99.90;;;;;;5054402;28;20632;-50
2022/12/27 13:40:28;;;;;;;7.40;2.73;;;6.20;99.90;;;;;;5054070;28;20272;-54
2022/12/27 13:43:26;;;;;;;4.57;1.70;;;6.20;99.90;;;;;;5054507;28;20202;-56
2022/12/27 13:46:15;;;;;;;5.00;1.93;;;6.20;99.90;;;;;;5053739;28;20267;-56
2022/12/27 13:49:05;;;;;;;2.17;1.70;;;6.20;99.90;;;;;;5054407;28;20234;-51
2022/12/27 13:51:51;;;;;;;6.83;2.03;;;6.20;99.90;;;;;;5054316;28;20232;-51
2022/12/27 13:54:51;;;;;;;6.20;2.13;;;6.20;99.90;;;;;;5054013;28;20209;-56
2022/12/27 13:57:57;;;;;;;6.40;2.10;;;6.20;99.90;;;;;;5061728;28;20220;-56
2022/12/27 14:00:31;;;;;;;6.63;1.83;;;6.20;99.90;;;;;;5016523;28;20284;-54
2022/12/27 14:03:43;;;;;;;10.10;2.03;;;6.20;99.90;;;;;;5033808;28;20204;-53
2022/12/27 14:06:36;;;;;;;5.80;1.97;;;6.20;99.90;;;;;;5044921;28;20197;-54
2022/12/27 14:09:30;;;;;;;2.83;1.47;;;6.30;99.90;;;;;;5061586;28;20270;-51
2022/12/27 14:12:13;;;;;;;4.77;1.70;;;6.30;99.90;;;;;;5073607;28;20231;-48
2022/12/27 14:14:41;;;;;;;5.97;1.70;;;6.40;99.90;;;;;;5073088;28;20213;-54
2022/12/27 14:17:21;;;;;;;4.77;1.73;;;6.40;99.90;;;;;;5073382;28;20690;-53
2022/12/27 14:20:03;;;;;;;6.60;1.60;;;6.40;99.90;;;;;;5073282;28;20710;-51
2022/12/27 14:23:04;;;;;;;7.97;2.03;;;6.30;99.90;;;;;;5033299;28;20202;-50
2022/12/27 14:26:22;;;;;;;8.57;1.70;;;6.30;99.90;;;;;;5032969;28;20216;-60
2022/12/27 14:29:39;;;;;;;6.37;1.70;;;6.30;99.90;;;;;;5036835;28;20596;-51
2022/12/27 14:32:33;;;;;;;7.40;2.13;;;6.30;99.90;;;;;;5053717;28;20618;-54
2022/12/27 14:35:39;;;;;;;8.37;1.90;;;6.30;99.90;;;;;;5053203;28;20206;-54
2022/12/27 14:38:53;;;;;;;3.73;1.73;;;6.20;99.90;;;;;;5050132;28;20241;-49
2022/12/27 14:42:02;;;;;;;9.20;2.03;;;6.30;99.90;;;;;;5052055;28;20556;-65
2022/12/27 14:45:16;;;;;;;8.67;1.80;;;6.30;99.90;;;;;;5061203;28;20685;-64
2022/12/27 14:48:02;;;;;;;8.03;1.87;;;6.70;99.90;;;;;;5011891;28;20212;-63
2022/12/27 14:51:00;;;;;;;6.17;1.63;;;6.60;99.90;;;;;;5072937;28;20214;-61
2022/12/27 14:53:56;;;;;;;8.80;2.10;;;6.60;99.90;;;;;;5073705;28;20232;-62
2022/12/27 14:56:31;;;;;;;3.90;1.90;;;6.50;99.90;;;;;;5068058;28;20202;-62
2022/12/27 14:59:10;;;;;;;6.37;2.07;;;6.50;99.90;;;;;;5052278;28;20228;-62
2022/12/27 15:01:52;;;;;;;7.17;1.80;;;6.50;99.90;;;;;;5052749;28;20205;-62
2022/12/27 15:04:42;;;;;;;5.67;2.10;;;6.50;99.90;;;;;;5052712;28;20217;-61
2022/12/27 15:07:36;;;;;;;9.80;1.73;;;6.50;99.90;;;;;;5052120;28;20216;-63